createdAt,value
2023-01-06T00:00:00.144Z,1.83
2023-01-06T00:01:32.453Z,2.50
2023-01-06T00:03:04.457Z,2.70
2023-01-06T00:04:36.141Z,2.60
2023-01-06T00:06:10.674Z,2.40
2023-01-06T00:07:44.014Z,2.30
2023-01-06T00:09:15.750Z,2.40
2023-01-06T00:10:47.362Z,2.50
2023-01-06T00:12:19.054Z,2.50
2023-01-06T00:13:50.846Z,2.30
2023-01-06T00:15:22.534Z,2.30
2023-01-06T00:16:54.184Z,2.40
2023-01-06T00:18:25.833Z,2.20
2023-01-06T00:19:57.480Z,2.70
2023-01-06T00:21:29.984Z,2.17
2023-01-06T00:23:01.719Z,2.23
2023-01-06T00:24:33.630Z,2.63
2023-01-06T00:26:06.675Z,2.30
2023-01-06T00:27:39.742Z,2.30
2023-01-06T00:29:11.531Z,2.27
2023-01-06T00:30:43.697Z,1.90
2023-01-06T00:32:18.628Z,2.13
2023-01-06T00:33:50.274Z,2.00
2023-01-06T00:35:21.961Z,1.83
2023-01-06T00:36:53.644Z,1.83
2023-01-06T00:38:25.501Z,1.97
2023-01-06T00:39:57.262Z,1.97
2023-01-06T00:41:47.387Z,1.90
2023-01-06T00:43:19.027Z,1.73
2023-01-06T00:44:50.877Z,2.10
2023-01-06T00:46:25.283Z,1.87
2023-01-06T00:47:56.963Z,1.97
2023-01-06T00:49:28.855Z,1.80
2023-01-06T00:51:01.164Z,1.93
2023-01-06T00:52:34.138Z,1.97
2023-01-06T00:54:11.423Z,1.93
2023-01-06T00:55:43.034Z,1.80
2023-01-06T00:57:14.675Z,1.53
2023-01-06T00:58:46.489Z,1.80
2023-01-06T01:00:18.328Z,1.73
2023-01-06T01:01:53.364Z,1.80
2023-01-06T01:03:25.146Z,1.70
2023-01-06T01:04:56.771Z,1.70
2023-01-06T01:06:28.574Z,1.47
2023-01-06T01:08:00.255Z,1.60
2023-01-06T01:09:32.507Z,1.87
2023-01-06T01:11:09.468Z,1.80
2023-01-06T01:12:41.174Z,1.97
2023-01-06T01:14:14.799Z,1.80
2023-01-06T01:15:46.562Z,1.80
2023-01-06T01:17:20.002Z,1.70
2023-01-06T01:18:51.638Z,1.60
2023-01-06T01:20:23.549Z,1.53
2023-01-06T01:21:55.445Z,1.80
2023-01-06T01:23:27.081Z,1.80
2023-01-06T01:24:58.763Z,1.70
2023-01-06T01:26:30.417Z,1.60
2023-01-06T01:28:02.124Z,1.60
2023-01-06T01:29:33.784Z,2.03
2023-01-06T01:31:05.587Z,1.50
2023-01-06T01:32:37.300Z,2.00
2023-01-06T01:34:10.821Z,1.47
2023-01-06T01:35:42.467Z,2.10
2023-01-06T01:37:14.924Z,1.60
2023-01-06T01:38:46.808Z,1.43
2023-01-06T01:40:18.483Z,1.70
2023-01-06T01:41:50.541Z,1.37
2023-01-06T01:43:22.209Z,1.70
2023-01-06T01:45:02.022Z,1.80
2023-01-06T01:46:42.567Z,1.40
2023-01-06T01:48:32.608Z,1.60
2023-01-06T01:50:18.995Z,1.60
2023-01-06T01:51:53.155Z,1.30
2023-01-06T01:53:34.092Z,1.50
2023-01-06T01:55:07.167Z,1.60
2023-01-06T01:56:43.192Z,1.40
2023-01-06T01:58:23.612Z,1.40
2023-01-06T01:59:55.675Z,1.80
2023-01-06T02:01:28.561Z,1.70
2023-01-06T02:03:00.735Z,1.80
2023-01-06T02:04:36.849Z,1.60
2023-01-06T02:06:20.566Z,1.70
2023-01-06T02:07:57.476Z,1.37
2023-01-06T02:10:11.573Z,1.70
2023-01-06T02:11:44.106Z,1.83
2023-01-06T02:13:16.322Z,1.40
2023-01-06T02:14:47.988Z,1.30
2023-01-06T02:16:22.556Z,1.63
2023-01-06T02:18:21.325Z,1.80
2023-01-06T02:20:11.473Z,1.70
2023-01-06T02:22:31.060Z,1.90
2023-01-06T02:24:37.439Z,1.80
2023-01-06T02:26:27.268Z,1.73
2023-01-06T02:28:07.417Z,1.87
2023-01-06T02:30:00.294Z,1.43
2023-01-06T02:32:02.040Z,1.90
2023-01-06T02:33:50.808Z,1.50
2023-01-06T02:35:36.457Z,1.60
2023-01-06T02:37:37.855Z,1.80
2023-01-06T02:39:27.994Z,1.50
2023-01-06T02:41:03.649Z,1.63
2023-01-06T02:42:54.237Z,1.27
2023-01-06T02:44:30.307Z,1.60
2023-01-06T02:46:15.901Z,1.47
2023-01-06T02:48:05.769Z,1.70
2023-01-06T02:50:06.169Z,1.70
2023-01-06T02:51:50.971Z,1.50
2023-01-06T02:53:28.706Z,1.40
2023-01-06T02:55:07.353Z,1.87
2023-01-06T02:56:46.493Z,2.00
2023-01-06T02:58:33.536Z,1.70
2023-01-06T03:00:32.523Z,1.70
2023-01-06T03:02:06.154Z,1.43
2023-01-06T03:03:40.927Z,1.73
2023-01-06T03:05:16.856Z,1.67
2023-01-06T03:06:51.436Z,1.63
2023-01-06T03:08:27.053Z,1.80
2023-01-06T03:10:01.493Z,1.93
2023-01-06T03:11:34.681Z,1.40
2023-01-06T03:13:17.230Z,1.60
2023-01-06T03:14:52.647Z,2.00
2023-01-06T03:16:24.453Z,1.70
2023-01-06T03:17:56.464Z,1.57
2023-01-06T03:19:28.201Z,1.70
2023-01-06T03:21:05.136Z,1.50
2023-01-06T03:22:38.819Z,1.50
2023-01-06T03:24:12.137Z,1.50
2023-01-06T03:25:44.823Z,1.70
2023-01-06T03:27:21.594Z,1.50
2023-01-06T03:28:53.353Z,1.60
2023-01-06T03:30:37.294Z,1.47
2023-01-06T03:32:17.780Z,1.83
2023-01-06T03:34:12.269Z,1.47
2023-01-06T03:36:00.261Z,1.47
2023-01-06T03:37:58.846Z,1.20
2023-01-06T03:39:56.423Z,1.40
2023-01-06T03:42:01.666Z,1.30
2023-01-06T03:43:40.060Z,1.40
2023-01-06T03:45:21.239Z,1.83
2023-01-06T03:46:59.955Z,1.20
2023-01-06T03:48:47.671Z,1.20
2023-01-06T03:50:55.304Z,1.27
2023-01-06T03:52:33.355Z,1.57
2023-01-06T03:54:30.499Z,1.50
2023-01-06T03:56:14.663Z,1.30
2023-01-06T03:57:51.068Z,1.27
2023-01-06T03:59:27.573Z,1.90
2023-01-06T04:01:00.017Z,1.40
2023-01-06T04:02:33.203Z,1.30
2023-01-06T04:04:05.145Z,1.33
2023-01-06T04:05:36.872Z,1.10
2023-01-06T04:07:08.711Z,1.40
2023-01-06T04:08:44.191Z,1.10
2023-01-06T04:10:17.849Z,1.53
2023-01-06T04:12:10.478Z,1.13
2023-01-06T04:13:44.034Z,1.40
2023-01-06T04:15:17.088Z,1.23
2023-01-06T04:16:50.672Z,1.20
2023-01-06T04:18:22.428Z,1.50
2023-01-06T04:19:54.101Z,1.40
2023-01-06T04:21:26.036Z,1.70
2023-01-06T04:22:58.397Z,1.27
2023-01-06T04:24:31.806Z,1.30
2023-01-06T04:26:03.592Z,1.50
2023-01-06T04:27:40.780Z,1.30
2023-01-06T04:29:12.540Z,1.50
2023-01-06T04:30:44.245Z,1.10
2023-01-06T04:32:16.417Z,1.27
2023-01-06T04:33:48.380Z,1.30
2023-01-06T04:35:20.122Z,1.30
2023-01-06T04:36:51.807Z,1.47
2023-01-06T04:38:23.636Z,1.50
2023-01-06T04:39:55.339Z,1.80
2023-01-06T04:41:27.170Z,1.10
2023-01-06T04:43:04.619Z,1.30
2023-01-06T04:44:36.476Z,1.43
2023-01-06T04:46:08.572Z,1.40
2023-01-06T04:47:41.273Z,1.30
2023-01-06T04:49:13.007Z,1.27
2023-01-06T04:50:44.907Z,1.43
2023-01-06T04:52:16.526Z,1.40
2023-01-06T04:53:48.201Z,1.57
2023-01-06T04:55:19.895Z,1.13
2023-01-06T04:56:51.615Z,1.50
2023-01-06T04:58:23.261Z,1.30
2023-01-06T04:59:54.869Z,1.50
2023-01-06T05:01:27.229Z,1.30
2023-01-06T05:02:58.981Z,1.20
2023-01-06T05:04:43.248Z,1.37
2023-01-06T05:06:19.269Z,1.20
2023-01-06T05:07:54.426Z,1.37
2023-01-06T05:09:26.038Z,1.30
2023-01-06T05:11:18.484Z,1.60
2023-01-06T05:12:50.161Z,1.53
2023-01-06T05:14:21.777Z,1.37
2023-01-06T05:15:53.564Z,1.20
2023-01-06T05:17:25.398Z,1.10
2023-01-06T05:18:58.182Z,1.30
2023-01-06T05:20:29.901Z,1.80
2023-01-06T05:22:01.572Z,1.10
2023-01-06T05:23:33.305Z,1.40
2023-01-06T05:25:05.429Z,1.20
2023-01-06T05:26:37.249Z,1.10
2023-01-06T05:28:08.948Z,2.13
2023-01-06T05:29:40.702Z,1.50
2023-01-06T05:31:12.549Z,1.53
2023-01-06T05:32:44.187Z,1.30
2023-01-06T05:34:15.843Z,1.83
2023-01-06T05:35:47.520Z,1.50
2023-01-06T05:37:19.133Z,1.40
2023-01-06T05:38:54.886Z,1.27
2023-01-06T05:40:26.688Z,1.37
2023-01-06T05:41:58.483Z,1.30
2023-01-06T05:43:32.677Z,1.57
2023-01-06T05:45:04.669Z,1.13
2023-01-06T05:46:36.470Z,1.33
2023-01-06T05:48:08.154Z,1.47
2023-01-06T05:49:39.860Z,1.10
2023-01-06T05:51:14.166Z,1.10
2023-01-06T05:52:45.809Z,1.50
2023-01-06T05:54:17.504Z,1.50
2023-01-06T05:55:49.117Z,1.10
2023-01-06T05:57:20.808Z,1.40
2023-01-06T05:58:53.909Z,1.20
2023-01-06T06:00:25.697Z,1.20
2023-01-06T06:01:57.347Z,1.50
2023-01-06T06:03:29.185Z,1.40
2023-01-06T06:05:00.850Z,1.20
2023-01-06T06:06:32.533Z,1.60
2023-01-06T06:08:04.327Z,1.27
2023-01-06T06:09:35.978Z,1.30
2023-01-06T06:11:10.158Z,1.30
2023-01-06T06:12:41.771Z,1.73
2023-01-06T06:14:14.259Z,1.20
2023-01-06T06:15:46.516Z,1.33
2023-01-06T06:17:18.178Z,1.30
2023-01-06T06:18:51.949Z,1.40
2023-01-06T06:20:23.606Z,1.20
2023-01-06T06:21:55.321Z,1.30
2023-01-06T06:23:26.975Z,1.10
2023-01-06T06:24:58.647Z,1.27
2023-01-06T06:26:30.429Z,1.13
2023-01-06T06:28:02.060Z,1.13
2023-01-06T06:29:33.775Z,1.10
2023-01-06T06:31:07.534Z,1.20
2023-01-06T06:32:39.226Z,1.47
2023-01-06T06:34:12.575Z,1.10
2023-01-06T06:35:44.199Z,1.07
2023-01-06T06:37:15.866Z,1.23
2023-01-06T06:38:49.413Z,1.30
2023-01-06T06:40:21.045Z,1.10
2023-01-06T06:41:52.678Z,1.40
2023-01-06T06:43:24.557Z,1.10
2023-01-06T06:44:56.191Z,1.10
2023-01-06T06:46:27.972Z,1.37
2023-01-06T06:47:59.610Z,1.17
2023-01-06T06:49:31.260Z,1.10
2023-01-06T06:51:12.104Z,1.40
2023-01-06T06:52:43.719Z,1.10
2023-01-06T06:54:15.379Z,1.00
2023-01-06T06:55:47.040Z,1.37
2023-01-06T06:57:18.665Z,1.00
2023-01-06T06:58:50.373Z,1.10
2023-01-06T07:00:22.136Z,1.10
2023-01-06T07:01:53.867Z,1.37
2023-01-06T07:03:25.633Z,1.00
2023-01-06T07:04:57.274Z,1.00
2023-01-06T07:06:29.078Z,1.00
2023-01-06T07:08:00.711Z,1.10
2023-01-06T07:09:32.484Z,1.20
2023-01-06T07:11:04.889Z,1.40
2023-01-06T07:12:36.567Z,1.00
2023-01-06T07:14:08.189Z,1.00
2023-01-06T07:15:39.949Z,1.10
2023-01-06T07:17:11.668Z,1.00
2023-01-06T07:18:43.553Z,0.97
2023-01-06T07:20:15.347Z,1.07
2023-01-06T07:21:46.990Z,0.93
2023-01-06T07:23:18.757Z,1.10
2023-01-06T07:24:50.461Z,1.20
2023-01-06T07:26:22.129Z,0.97
2023-01-06T07:27:58.049Z,1.00
2023-01-06T07:29:29.678Z,0.87
2023-01-06T07:31:02.021Z,0.97
2023-01-06T07:32:33.689Z,1.00
2023-01-06T07:34:05.414Z,1.20
2023-01-06T07:35:37.170Z,1.20
2023-01-06T07:37:08.810Z,1.00
2023-01-06T07:38:40.437Z,0.97
2023-01-06T07:40:12.658Z,1.17
2023-01-06T07:41:44.340Z,0.90
2023-01-06T07:43:17.167Z,1.30
2023-01-06T07:44:48.871Z,0.93
2023-01-06T07:46:20.542Z,1.40
2023-01-06T07:47:52.222Z,1.00
2023-01-06T07:49:23.898Z,1.00
2023-01-06T07:50:57.920Z,1.10
2023-01-06T07:52:32.126Z,1.10
2023-01-06T07:54:04.134Z,0.90
2023-01-06T07:55:35.760Z,1.10
2023-01-06T07:57:07.837Z,1.20
2023-01-06T07:58:39.741Z,1.00
2023-01-06T08:00:11.864Z,1.10
2023-01-06T08:01:46.625Z,1.10
2023-01-06T08:03:18.412Z,1.17
2023-01-06T08:04:50.408Z,1.40
2023-01-06T08:06:22.079Z,1.20
2023-01-06T08:07:53.758Z,1.20
2023-01-06T08:09:26.989Z,1.00
2023-01-06T08:10:58.935Z,1.30
2023-01-06T08:12:33.568Z,1.10
2023-01-06T08:14:05.373Z,1.40
2023-01-06T08:15:40.912Z,1.17
2023-01-06T08:17:13.185Z,1.00
2023-01-06T08:18:44.800Z,1.00
2023-01-06T08:20:16.517Z,1.00
2023-01-06T08:21:48.227Z,1.20
2023-01-06T08:23:19.884Z,1.20
2023-01-06T08:24:51.561Z,1.23
2023-01-06T08:26:23.348Z,1.10
2023-01-06T08:27:54.994Z,1.20
2023-01-06T08:29:26.653Z,1.20
2023-01-06T08:30:58.356Z,1.20
2023-01-06T08:32:30.073Z,1.20
2023-01-06T08:34:02.005Z,1.10
2023-01-06T08:35:33.705Z,1.10
2023-01-06T08:37:05.481Z,1.10
2023-01-06T08:38:37.981Z,1.23
2023-01-06T08:40:10.165Z,1.10
2023-01-06T08:41:42.085Z,1.10
2023-01-06T08:43:14.083Z,1.33
2023-01-06T08:44:46.071Z,1.13
2023-01-06T08:46:20.120Z,1.13
2023-01-06T08:47:51.831Z,1.00
2023-01-06T08:49:23.568Z,1.60
2023-01-06T08:50:55.526Z,1.20
2023-01-06T08:52:27.243Z,1.13
2023-01-06T08:53:58.931Z,1.20
2023-01-06T08:55:30.784Z,1.10
2023-01-06T08:57:02.465Z,1.13
2023-01-06T08:58:34.107Z,0.90
2023-01-06T09:00:06.872Z,0.90
2023-01-06T09:01:38.631Z,1.00
2023-01-06T09:03:10.451Z,1.17
2023-01-06T09:04:42.292Z,1.00
2023-01-06T09:06:14.548Z,0.93
2023-01-06T09:07:46.353Z,0.97
2023-01-06T09:09:18.338Z,1.57
2023-01-06T09:10:50.702Z,1.13
2023-01-06T09:12:22.363Z,1.10
2023-01-06T09:13:54.208Z,1.07
2023-01-06T09:15:29.448Z,1.13
2023-01-06T09:17:01.120Z,1.30
2023-01-06T09:18:32.800Z,1.20
2023-01-06T09:20:05.437Z,1.17
2023-01-06T09:21:38.043Z,1.30
2023-01-06T09:23:09.696Z,1.00
2023-01-06T09:24:41.334Z,1.13
2023-01-06T09:26:14.344Z,1.20
2023-01-06T09:27:45.972Z,1.10
2023-01-06T09:29:17.722Z,1.10
2023-01-06T09:30:49.401Z,1.30
2023-01-06T09:32:21.151Z,1.10
2023-01-06T09:33:53.763Z,1.10
2023-01-06T09:35:25.408Z,1.03
2023-01-06T09:36:57.864Z,1.40
2023-01-06T09:38:30.185Z,1.20
2023-01-06T09:40:04.407Z,1.50
2023-01-06T09:41:49.371Z,1.40
2023-01-06T09:43:39.352Z,1.20
2023-01-06T09:45:19.969Z,1.20
2023-01-06T09:46:52.383Z,1.23
2023-01-06T09:48:28.449Z,1.30
2023-01-06T09:50:17.098Z,1.07
2023-01-06T09:51:49.274Z,1.17
2023-01-06T09:53:34.674Z,1.30
2023-01-06T09:55:19.215Z,1.40
2023-01-06T09:57:02.011Z,1.40
2023-01-06T09:58:58.436Z,1.20
2023-01-06T10:00:56.087Z,1.10
2023-01-06T10:02:39.676Z,1.30
2023-01-06T10:04:28.799Z,1.40
2023-01-06T10:06:22.465Z,1.30
2023-01-06T10:08:03.373Z,1.17
2023-01-06T10:09:59.980Z,1.00
2023-01-06T10:12:08.226Z,1.00
2023-01-06T10:14:18.564Z,0.90
2023-01-06T10:16:16.522Z,0.97
2023-01-06T10:18:21.190Z,0.90
2023-01-06T10:20:34.842Z,0.97
2023-01-06T10:22:15.969Z,1.03
2023-01-06T10:24:23.338Z,1.07
2023-01-06T10:26:05.419Z,1.10
2023-01-06T10:27:42.306Z,0.90
2023-01-06T10:29:17.571Z,1.10
2023-01-06T10:30:55.195Z,1.00
2023-01-06T10:32:31.329Z,1.00
2023-01-06T10:34:04.807Z,1.20
2023-01-06T10:35:36.519Z,1.07
2023-01-06T10:37:16.885Z,1.20
2023-01-06T10:38:52.480Z,1.40
2023-01-06T10:40:30.329Z,1.10
2023-01-06T10:42:24.595Z,1.20
2023-01-06T10:43:57.937Z,1.20
2023-01-06T10:45:40.959Z,1.13
2023-01-06T10:47:28.547Z,1.00
2023-01-06T10:49:05.373Z,1.07
2023-01-06T10:50:37.989Z,1.50
2023-01-06T10:52:10.489Z,1.30
2023-01-06T10:53:42.426Z,1.17
2023-01-06T10:55:40.601Z,1.10
2023-01-06T10:57:20.291Z,1.40
2023-01-06T10:58:59.398Z,1.10
2023-01-06T11:00:32.164Z,1.20
2023-01-06T11:02:03.950Z,1.27
2023-01-06T11:03:36.931Z,1.23
2023-01-06T11:05:13.950Z,1.10
2023-01-06T11:06:54.467Z,1.00
2023-01-06T11:08:26.951Z,1.23
2023-01-06T11:10:00.293Z,1.10
2023-01-06T11:11:32.109Z,1.97
2023-01-06T11:13:05.109Z,2.10
2023-01-06T11:14:37.075Z,2.60
2023-01-06T11:16:22.265Z,2.47
2023-01-06T11:17:54.005Z,2.80
2023-01-06T11:19:35.283Z,3.50
2023-01-06T11:21:12.854Z,3.83
2023-01-06T11:22:45.264Z,4.33
2023-01-06T11:24:25.401Z,3.30
2023-01-06T11:26:12.322Z,3.33
2023-01-06T11:27:43.944Z,2.97
2023-01-06T11:29:28.432Z,2.50
2023-01-06T11:31:02.621Z,2.20
2023-01-06T11:32:34.837Z,2.20
2023-01-06T11:34:06.531Z,1.83
2023-01-06T11:35:38.242Z,2.03
2023-01-06T11:37:09.922Z,1.90
2023-01-06T11:38:44.087Z,2.03
2023-01-06T11:40:29.793Z,1.67
2023-01-06T11:42:14.908Z,1.47
2023-01-06T11:43:49.210Z,2.70
2023-01-06T11:46:00.067Z,1.67
2023-01-06T11:47:31.947Z,1.60
2023-01-06T11:49:32.341Z,1.93
2023-01-06T11:51:07.960Z,1.57
2023-01-06T11:52:41.023Z,1.77
2023-01-06T11:54:39.751Z,1.80
2023-01-06T11:56:14.508Z,1.20
2023-01-06T11:58:11.820Z,2.20
2023-01-06T12:00:20.584Z,2.30
2023-01-06T12:02:01.629Z,1.70
2023-01-06T12:03:42.710Z,1.50
2023-01-06T12:05:41.890Z,1.47
2023-01-06T12:07:43.057Z,1.50
2023-01-06T12:09:21.533Z,1.50
2023-01-06T12:11:12.422Z,2.17
2023-01-06T12:12:44.275Z,1.90
2023-01-06T12:14:28.897Z,1.70
2023-01-06T12:16:26.159Z,2.13
2023-01-06T12:18:04.753Z,1.60
2023-01-06T12:19:42.629Z,2.40
2023-01-06T12:21:22.453Z,1.67
2023-01-06T12:23:06.415Z,2.10
2023-01-06T12:24:38.860Z,2.30
2023-01-06T12:26:18.423Z,2.20
2023-01-06T12:27:57.403Z,3.47
2023-01-06T12:29:30.303Z,3.33
2023-01-06T12:31:28.843Z,6.60
2023-01-06T12:33:16.226Z,5.90
2023-01-06T12:34:51.626Z,4.30
2023-01-06T12:36:41.646Z,5.30
2023-01-06T12:38:33.385Z,5.57
2023-01-06T12:40:28.127Z,3.67
2023-01-06T12:42:21.068Z,3.93
2023-01-06T12:44:03.124Z,4.17
2023-01-06T12:46:20.500Z,4.00
2023-01-06T12:47:56.718Z,3.30
2023-01-06T12:49:38.640Z,2.70
2023-01-06T12:51:19.193Z,2.80
2023-01-06T12:53:01.249Z,7.40
2023-01-06T12:54:37.358Z,5.90
2023-01-06T12:56:56.169Z,7.63
2023-01-06T12:58:35.344Z,7.80
2023-01-06T13:00:41.385Z,7.53
2023-01-06T13:02:39.934Z,8.90
2023-01-06T13:04:26.689Z,8.17
2023-01-06T13:06:16.934Z,7.70
2023-01-06T13:07:55.615Z,7.67
2023-01-06T13:09:58.350Z,6.77
2023-01-06T13:11:36.244Z,6.40
2023-01-06T13:13:46.694Z,4.70
2023-01-06T13:15:32.575Z,3.27
2023-01-06T13:17:24.030Z,4.10
2023-01-06T13:18:55.605Z,3.03
2023-01-06T13:20:47.885Z,3.47
2023-01-06T13:22:41.300Z,3.40
2023-01-06T13:24:25.176Z,3.60
2023-01-06T13:26:26.943Z,3.40
2023-01-06T13:28:06.766Z,4.63
2023-01-06T13:30:35.729Z,4.60
2023-01-06T13:32:20.943Z,4.20
2023-01-06T13:34:14.817Z,3.20
2023-01-06T13:35:58.258Z,3.50
2023-01-06T13:37:51.557Z,5.00
2023-01-06T13:39:31.676Z,6.40
2023-01-06T13:41:15.288Z,7.00
2023-01-06T13:42:59.401Z,10.27
2023-01-06T13:44:36.050Z,12.03
2023-01-06T13:46:11.417Z,10.53
2023-01-06T13:47:44.044Z,9.90
2023-01-06T13:49:17.435Z,8.10
2023-01-06T13:50:50.102Z,7.90
2023-01-06T13:52:31.995Z,7.53
2023-01-06T13:54:03.959Z,9.57
2023-01-06T13:55:36.613Z,7.97
2023-01-06T13:57:20.552Z,7.53
2023-01-06T13:59:18.756Z,7.50
2023-01-06T14:01:08.120Z,6.90
2023-01-06T14:02:39.897Z,6.07
2023-01-06T14:04:32.693Z,5.73
2023-01-06T14:06:04.845Z,5.20
2023-01-06T14:07:39.693Z,5.40
2023-01-06T14:09:20.704Z,5.40
2023-01-06T14:11:20.973Z,5.00
2023-01-06T14:12:53.453Z,4.43
2023-01-06T14:14:29.975Z,3.50
2023-01-06T14:16:12.833Z,3.27
2023-01-06T14:17:47.018Z,4.47
2023-01-06T14:19:29.026Z,4.80
2023-01-06T14:21:04.604Z,6.20
2023-01-06T14:22:36.629Z,5.00
2023-01-06T14:24:25.403Z,5.40
2023-01-06T14:25:57.651Z,5.53
2023-01-06T14:27:47.731Z,4.90
2023-01-06T14:29:44.291Z,6.67
2023-01-06T14:31:31.174Z,7.67
2023-01-06T14:33:02.840Z,7.40
2023-01-06T14:34:42.151Z,7.53
2023-01-06T14:36:15.960Z,7.00
2023-01-06T14:37:51.569Z,6.00
2023-01-06T14:39:25.887Z,6.33
2023-01-06T14:41:06.819Z,5.93
2023-01-06T14:42:44.328Z,5.67
2023-01-06T14:44:19.539Z,5.63
2023-01-06T14:45:52.765Z,4.60
2023-01-06T14:47:38.173Z,5.03
2023-01-06T14:49:31.526Z,4.50
2023-01-06T14:51:03.921Z,4.13
2023-01-06T14:52:39.428Z,3.30
2023-01-06T14:54:19.293Z,3.67
2023-01-06T14:55:51.653Z,3.03
2023-01-06T14:57:26.405Z,2.77
2023-01-06T14:59:24.722Z,2.40
2023-01-06T15:00:56.500Z,2.10
2023-01-06T15:02:28.866Z,2.27
2023-01-06T15:04:03.546Z,2.20
2023-01-06T15:05:39.511Z,2.07
2023-01-06T15:07:22.044Z,1.70
2023-01-06T15:08:55.352Z,1.77
2023-01-06T15:10:29.130Z,1.83
2023-01-06T15:12:00.903Z,2.00
2023-01-06T15:13:32.860Z,1.80
2023-01-06T15:15:34.938Z,2.20
2023-01-06T15:17:07.250Z,2.20
2023-01-06T15:18:44.008Z,2.77
2023-01-06T15:20:15.977Z,2.57
2023-01-06T15:21:49.549Z,3.00
2023-01-06T15:23:22.104Z,3.43
2023-01-06T15:24:54.608Z,3.03
2023-01-06T15:26:28.532Z,2.87
2023-01-06T15:28:00.334Z,3.10
2023-01-06T15:29:32.105Z,3.03
2023-01-06T15:31:03.948Z,2.73
2023-01-06T15:32:35.841Z,2.70
2023-01-06T15:34:17.870Z,3.07
2023-01-06T15:35:51.733Z,2.70
2023-01-06T15:37:30.966Z,2.67
2023-01-06T15:39:04.631Z,2.53
2023-01-06T15:40:37.016Z,3.03
2023-01-06T15:42:11.185Z,2.40
2023-01-06T15:43:45.681Z,2.43
2023-01-06T15:45:32.136Z,2.30
2023-01-06T15:47:29.232Z,2.90
2023-01-06T15:49:02.190Z,2.60
2023-01-06T15:50:34.771Z,2.70
2023-01-06T15:52:29.466Z,3.07
2023-01-06T15:54:01.258Z,2.73
2023-01-06T15:55:40.041Z,2.70
2023-01-06T15:57:16.870Z,2.90
2023-01-06T15:58:51.306Z,3.33
2023-01-06T16:00:26.631Z,2.90
2023-01-06T16:01:58.481Z,3.00
2023-01-06T16:03:31.874Z,3.03
2023-01-06T16:05:03.800Z,3.03
2023-01-06T16:06:40.662Z,3.03
2023-01-06T16:08:24.890Z,2.60
2023-01-06T16:09:56.522Z,3.00
2023-01-06T16:11:48.116Z,2.90
2023-01-06T16:13:29.181Z,2.80
2023-01-06T16:15:44.479Z,3.27
2023-01-06T16:17:33.156Z,4.00
2023-01-06T16:19:16.137Z,3.33
2023-01-06T16:20:47.822Z,4.73
2023-01-06T16:22:35.788Z,4.67
2023-01-06T16:24:17.484Z,5.73
2023-01-06T16:25:51.512Z,5.40
2023-01-06T16:27:24.926Z,4.97
2023-01-06T16:28:59.369Z,4.50
2023-01-06T16:30:38.056Z,5.63
2023-01-06T16:32:31.248Z,4.60
2023-01-06T16:34:15.160Z,5.10
2023-01-06T16:35:51.768Z,4.37
2023-01-06T16:37:23.448Z,4.53
2023-01-06T16:38:55.051Z,4.60
2023-01-06T16:40:28.547Z,4.40
2023-01-06T16:42:00.360Z,3.97
2023-01-06T16:43:32.101Z,3.77
2023-01-06T16:45:09.000Z,4.00
2023-01-06T16:46:40.699Z,4.00
2023-01-06T16:48:17.443Z,4.00
2023-01-06T16:49:49.069Z,3.60
2023-01-06T16:51:24.414Z,3.40
2023-01-06T16:53:01.806Z,3.30
2023-01-06T16:54:33.533Z,3.20
2023-01-06T16:56:14.227Z,2.80
2023-01-06T16:57:49.084Z,2.97
2023-01-06T16:59:23.528Z,3.00
2023-01-06T17:00:58.223Z,4.37
2023-01-06T17:02:30.018Z,3.80
2023-01-06T17:04:03.316Z,3.10
2023-01-06T17:05:35.945Z,3.00
2023-01-06T17:07:14.735Z,2.90
2023-01-06T17:08:47.335Z,3.30
2023-01-06T17:10:21.267Z,2.97
2023-01-06T17:11:54.044Z,3.50
2023-01-06T17:13:36.730Z,2.83
2023-01-06T17:15:12.487Z,3.13
2023-01-06T17:16:45.145Z,3.03
2023-01-06T17:18:28.334Z,6.33
2023-01-06T17:20:00.060Z,4.53
2023-01-06T17:21:39.217Z,4.27
2023-01-06T17:23:11.686Z,5.40
2023-01-06T17:24:43.558Z,4.97
2023-01-06T17:26:19.933Z,6.23
2023-01-06T17:27:51.855Z,4.70
2023-01-06T17:29:24.584Z,6.00
2023-01-06T17:30:56.336Z,4.80
2023-01-06T17:32:39.743Z,5.03
2023-01-06T17:34:16.036Z,3.90
2023-01-06T17:35:50.536Z,4.77
2023-01-06T17:37:23.846Z,4.13
2023-01-06T17:38:56.344Z,3.80
2023-01-06T17:40:33.638Z,3.60
2023-01-06T17:42:11.571Z,3.60
2023-01-06T17:43:44.261Z,3.27
2023-01-06T17:45:26.576Z,3.30
2023-01-06T17:46:58.378Z,2.77
2023-01-06T17:48:36.120Z,2.90
2023-01-06T17:50:26.159Z,2.67
2023-01-06T17:51:57.956Z,2.30
2023-01-06T17:53:49.523Z,2.50
2023-01-06T17:55:45.198Z,2.50
2023-01-06T17:57:21.219Z,2.53
2023-01-06T17:58:52.995Z,2.50
2023-01-06T18:00:26.627Z,2.57
2023-01-06T18:01:58.361Z,2.10
2023-01-06T18:03:34.451Z,2.70
2023-01-06T18:05:23.850Z,2.13
2023-01-06T18:06:55.562Z,2.00
2023-01-06T18:08:27.675Z,2.30
2023-01-06T18:09:59.571Z,2.30
2023-01-06T18:11:35.718Z,2.20
2023-01-06T18:13:18.787Z,2.80
2023-01-06T18:14:50.490Z,2.27
2023-01-06T18:16:29.702Z,2.60
2023-01-06T18:18:11.865Z,2.20
2023-01-06T18:19:43.604Z,2.50
2023-01-06T18:21:15.285Z,2.40
2023-01-06T18:22:47.217Z,2.60
2023-01-06T18:24:34.273Z,2.47
2023-01-06T18:26:24.677Z,2.60
2023-01-06T18:27:56.337Z,2.73
2023-01-06T18:29:38.022Z,2.73
2023-01-06T18:31:15.874Z,2.60
2023-01-06T18:32:50.063Z,2.70
2023-01-06T18:34:39.084Z,2.87
2023-01-06T18:36:10.773Z,2.90
2023-01-06T18:37:43.031Z,2.70
2023-01-06T18:39:14.976Z,2.67
2023-01-06T18:40:46.712Z,3.37
2023-01-06T18:42:31.990Z,3.30
2023-01-06T18:44:15.176Z,5.40
2023-01-06T18:45:51.266Z,5.63
2023-01-06T18:47:24.655Z,6.83
2023-01-06T18:48:56.299Z,7.33
2023-01-06T18:50:32.389Z,6.70
2023-01-06T18:52:44.181Z,5.23
2023-01-06T18:54:19.422Z,4.57
2023-01-06T18:55:57.488Z,4.40
2023-01-06T18:57:31.577Z,3.90
2023-01-06T18:59:12.675Z,3.90
2023-01-06T19:00:52.333Z,3.50
2023-01-06T19:02:36.840Z,3.10
2023-01-06T19:04:28.970Z,3.13
2023-01-06T19:06:24.290Z,3.10
2023-01-06T19:07:57.327Z,3.30
2023-01-06T19:09:41.744Z,3.00
2023-01-06T19:11:17.656Z,3.40
2023-01-06T19:12:49.368Z,3.20
2023-01-06T19:14:21.057Z,2.60
2023-01-06T19:15:53.753Z,2.80
2023-01-06T19:17:32.954Z,2.60
2023-01-06T19:19:11.003Z,2.70
2023-01-06T19:20:45.008Z,3.17
2023-01-06T19:22:21.745Z,3.00
2023-01-06T19:23:53.371Z,2.80
2023-01-06T19:25:36.721Z,2.80
2023-01-06T19:27:27.324Z,3.23
2023-01-06T19:29:03.391Z,3.13
2023-01-06T19:30:43.738Z,3.20
2023-01-06T19:32:15.750Z,3.13
2023-01-06T19:33:56.178Z,3.27
2023-01-06T19:35:29.843Z,2.43
2023-01-06T19:37:01.510Z,3.00
2023-01-06T19:38:39.964Z,2.50
2023-01-06T19:40:27.678Z,3.20
2023-01-06T19:42:08.269Z,2.67
2023-01-06T19:43:39.957Z,2.33
2023-01-06T19:45:32.463Z,2.50
2023-01-06T19:47:35.653Z,3.10
2023-01-06T19:49:38.793Z,2.20
2023-01-06T19:51:22.624Z,2.43
2023-01-06T19:52:59.251Z,2.37
2023-01-06T19:54:36.999Z,2.73
2023-01-06T19:56:39.845Z,3.40
2023-01-06T19:58:21.949Z,6.47
2023-01-06T19:59:56.542Z,8.03
2023-01-06T20:01:31.371Z,6.50
2023-01-06T20:03:04.295Z,5.53
2023-01-06T20:04:36.749Z,4.40
2023-01-06T20:06:08.971Z,3.90
2023-01-06T20:07:40.645Z,3.50
2023-01-06T20:09:15.717Z,3.30
2023-01-06T20:10:47.535Z,3.20
2023-01-06T20:12:19.264Z,3.00
2023-01-06T20:13:51.040Z,2.83
2023-01-06T20:15:22.727Z,2.80
2023-01-06T20:16:54.694Z,2.50
2023-01-06T20:18:26.399Z,2.50
2023-01-06T20:19:58.029Z,2.40
2023-01-06T20:21:29.657Z,2.60
2023-01-06T20:23:01.543Z,2.50
2023-01-06T20:24:33.275Z,2.50
2023-01-06T20:26:05.099Z,1.90
2023-01-06T20:27:37.145Z,2.10
2023-01-06T20:29:09.072Z,2.00
2023-01-06T20:30:41.198Z,2.20
2023-01-06T20:32:12.960Z,3.00
2023-01-06T20:33:44.864Z,2.10
2023-01-06T20:35:16.764Z,2.20
2023-01-06T20:36:48.453Z,2.30
2023-01-06T20:38:20.204Z,2.00
2023-01-06T20:39:52.477Z,2.07
2023-01-06T20:41:24.195Z,2.30
2023-01-06T20:42:55.836Z,2.30
2023-01-06T20:44:27.581Z,2.00
2023-01-06T20:46:02.009Z,2.00
2023-01-06T20:47:33.887Z,2.10
2023-01-06T20:49:05.547Z,2.40
2023-01-06T20:50:40.198Z,2.00
2023-01-06T20:52:11.863Z,2.80
2023-01-06T20:53:43.509Z,2.80
2023-01-06T20:55:15.421Z,2.80
2023-01-06T20:56:47.272Z,3.00
2023-01-06T20:58:19.205Z,3.20
2023-01-06T20:59:50.855Z,2.40
2023-01-06T21:01:22.632Z,2.07
2023-01-06T21:02:54.498Z,2.50
2023-01-06T21:04:26.265Z,2.07
2023-01-06T21:05:57.976Z,2.33
2023-01-06T21:07:29.675Z,2.30
2023-01-06T21:09:01.396Z,2.10
2023-01-06T21:10:33.132Z,2.20
2023-01-06T21:12:05.069Z,1.83
2023-01-06T21:13:36.768Z,2.23
2023-01-06T21:15:09.725Z,2.00
2023-01-06T21:16:41.924Z,2.00
2023-01-06T21:18:13.621Z,2.00
2023-01-06T21:19:45.264Z,2.47
2023-01-06T21:21:17.156Z,2.13
2023-01-06T21:22:48.810Z,1.90
2023-01-06T21:24:20.493Z,2.13
2023-01-06T21:25:52.135Z,2.30
2023-01-06T21:27:23.858Z,2.20
2023-01-06T21:28:55.507Z,1.90
2023-01-06T21:30:28.302Z,2.30
2023-01-06T21:32:00.091Z,2.10
2023-01-06T21:33:32.603Z,1.90
2023-01-06T21:35:04.466Z,2.00